createdAt,value
2023-02-16T00:00:07.318Z,99904.28
2023-02-16T00:05:25.005Z,99907.59
2023-02-16T00:10:32.775Z,99905.94
2023-02-16T00:15:37.074Z,99903.25
2023-02-16T00:20:39.919Z,99898.00
2023-02-16T00:25:42.925Z,99903.72
2023-02-16T00:30:47.823Z,99913.56
2023-02-16T00:35:51.060Z,99906.19
2023-02-16T00:40:54.037Z,99906.38
2023-02-16T00:45:58.705Z,99894.22
2023-02-16T00:51:01.876Z,99893.63
2023-02-16T00:56:05.276Z,99903.59
2023-02-16T01:01:14.264Z,99908.63
2023-02-16T01:06:34.986Z,99899.63
2023-02-16T01:11:37.965Z,99894.66
2023-02-16T01:16:43.420Z,99886.03
2023-02-16T01:21:46.666Z,99890.47
2023-02-16T01:26:51.821Z,99890.13
2023-02-16T01:31:57.024Z,99882.25
2023-02-16T01:36:59.942Z,99869.03
2023-02-16T01:42:31.119Z,99875.38
2023-02-16T01:47:41.961Z,99870.69
2023-02-16T01:52:48.901Z,99877.56
2023-02-16T01:57:57.285Z,99876.63
2023-02-16T02:03:18.594Z,99865.63
2023-02-16T02:08:27.989Z,99864.00
2023-02-16T02:13:37.251Z,99856.03
2023-02-16T02:18:41.545Z,99862.38
2023-02-16T02:24:16.196Z,99860.72
2023-02-16T02:29:41.698Z,99871.81
2023-02-16T02:35:05.290Z,99872.88
2023-02-16T02:40:19.057Z,99863.16
2023-02-16T02:45:28.040Z,99870.28
2023-02-16T02:51:07.576Z,99861.19
2023-02-16T02:56:32.448Z,99842.81
2023-02-16T03:01:41.517Z,99849.69
2023-02-16T03:06:49.038Z,99848.06
2023-02-16T03:12:11.979Z,99842.91
2023-02-16T03:17:36.926Z,99842.78
2023-02-16T03:22:57.621Z,99843.19
2023-02-16T03:28:19.878Z,99855.47
2023-02-16T03:33:25.997Z,99862.31
2023-02-16T03:38:29.327Z,99849.91
2023-02-16T03:43:32.808Z,99862.53
2023-02-16T03:48:38.334Z,99862.38
2023-02-16T03:53:41.314Z,99855.72
2023-02-16T03:58:44.187Z,99858.78
2023-02-16T04:03:48.483Z,99857.78
2023-02-16T04:08:51.939Z,99834.44
2023-02-16T04:13:54.879Z,99852.63
2023-02-16T04:18:59.118Z,99852.78
2023-02-16T04:24:02.606Z,99867.94
2023-02-16T04:29:05.530Z,99856.63
2023-02-16T04:34:10.014Z,99851.56
2023-02-16T04:39:12.894Z,99851.22
2023-02-16T04:44:15.786Z,99841.03
2023-02-16T04:49:20.050Z,99840.47
2023-02-16T04:54:23.566Z,99839.25
2023-02-16T04:59:27.116Z,99826.53
2023-02-16T05:04:31.944Z,99840.53
2023-02-16T05:09:34.908Z,99835.16
2023-02-16T05:14:45.068Z,99838.69
2023-02-16T05:19:51.250Z,99837.69
2023-02-16T05:24:54.223Z,99833.59
2023-02-16T05:29:58.085Z,99848.66
2023-02-16T05:35:02.468Z,99847.13
2023-02-16T05:40:05.993Z,99852.44
2023-02-16T05:45:09.924Z,99852.56
2023-02-16T05:50:14.326Z,99854.91
2023-02-16T05:55:17.208Z,99851.78
2023-02-16T06:00:21.570Z,99854.69
2023-02-16T06:05:25.805Z,99860.69
2023-02-16T06:10:28.698Z,99864.22
2023-02-16T06:15:31.654Z,99864.72
2023-02-16T06:20:35.940Z,99860.00
2023-02-16T06:25:39.492Z,99859.56
2023-02-16T06:30:43.027Z,99855.72
2023-02-16T06:35:47.300Z,99866.91
2023-02-16T06:40:52.989Z,99861.31
2023-02-16T06:45:55.898Z,99870.09
2023-02-16T06:51:00.176Z,99862.50
2023-02-16T06:56:03.045Z,99858.16
2023-02-16T07:01:06.553Z,99856.41
2023-02-16T07:06:11.021Z,99858.75
2023-02-16T07:11:15.892Z,99842.50
2023-02-16T07:16:18.987Z,99846.25
2023-02-16T07:21:23.345Z,99844.84
2023-02-16T07:26:26.578Z,99839.69
2023-02-16T07:31:29.553Z,99831.63
2023-02-16T07:36:34.123Z,99847.41
2023-02-16T07:41:37.044Z,99856.16
2023-02-16T07:46:43.670Z,99863.63
2023-02-16T07:51:47.923Z,99854.50
2023-02-16T07:56:50.822Z,99853.81
2023-02-16T08:01:53.825Z,99836.13
2023-02-16T08:06:58.342Z,99840.13
2023-02-16T08:12:01.270Z,99852.13
2023-02-16T08:17:04.366Z,99858.00
2023-02-16T08:22:09.995Z,99863.84
2023-02-16T08:27:12.956Z,99857.22
2023-02-16T08:32:15.898Z,99862.47
2023-02-16T08:37:20.197Z,99852.13
2023-02-16T08:42:23.070Z,99856.81
2023-02-16T08:47:25.942Z,99850.00
2023-02-16T08:52:30.249Z,99847.44
2023-02-16T08:57:34.784Z,99855.22
2023-02-16T09:02:37.725Z,99852.13
2023-02-16T09:07:42.046Z,99841.69
2023-02-16T09:12:48.432Z,99826.75
2023-02-16T09:17:51.568Z,99829.91
2023-02-16T09:22:55.859Z,99825.72
2023-02-16T09:27:58.781Z,99834.94
2023-02-16T09:33:02.154Z,99838.53
2023-02-16T09:38:07.683Z,99829.69
2023-02-16T09:43:25.890Z,99827.63
2023-02-16T09:48:37.533Z,99825.31
2023-02-16T09:53:46.483Z,99824.69
2023-02-16T09:58:56.780Z,99837.16
2023-02-16T10:04:12.265Z,99840.81
2023-02-16T10:09:19.671Z,99834.75
2023-02-16T10:14:32.617Z,99841.13
2023-02-16T10:19:40.500Z,99834.31
2023-02-16T10:24:53.836Z,99838.28
2023-02-16T10:29:57.029Z,99834.59
2023-02-16T10:35:13.519Z,99827.78
2023-02-16T10:40:32.521Z,99825.94
2023-02-16T10:45:41.185Z,99820.78
2023-02-16T10:50:50.710Z,99813.69
2023-02-16T10:55:55.513Z,99799.09
2023-02-16T11:01:06.756Z,99792.69
2023-02-16T11:06:15.647Z,99796.84
2023-02-16T11:11:22.817Z,99806.84
2023-02-16T11:16:26.300Z,99796.03
2023-02-16T11:21:47.383Z,99805.44
2023-02-16T11:27:00.914Z,99786.13
2023-02-16T11:32:08.979Z,99787.25
2023-02-16T11:37:17.064Z,99785.31
2023-02-16T11:42:29.929Z,99780.06
2023-02-16T11:47:35.446Z,99772.88
2023-02-16T11:52:38.451Z,99770.44
2023-02-16T11:57:42.707Z,99756.38
2023-02-16T12:03:11.063Z,99760.50
2023-02-16T12:08:39.393Z,99753.25
2023-02-16T12:13:56.383Z,99749.69
2023-02-16T12:19:09.582Z,99756.50
2023-02-16T12:24:26.580Z,99747.59
2023-02-16T12:29:41.450Z,99736.38
2023-02-16T12:34:59.585Z,99738.78
2023-02-16T12:40:17.985Z,99734.53
2023-02-16T12:45:24.964Z,99738.00
2023-02-16T12:50:30.582Z,99722.03
2023-02-16T12:55:39.279Z,99719.41
2023-02-16T13:00:48.609Z,99710.09
2023-02-16T13:06:00.881Z,99717.00
2023-02-16T13:11:09.672Z,99703.66
2023-02-16T13:16:28.926Z,99704.06
2023-02-16T13:21:51.370Z,99699.19
2023-02-16T13:27:08.937Z,99694.31
2023-02-16T13:32:38.555Z,99688.88
2023-02-16T13:38:01.181Z,99685.00
2023-02-16T13:43:17.707Z,99676.91
2023-02-16T13:48:26.937Z,99677.78
2023-02-16T13:53:37.477Z,99686.22
2023-02-16T13:58:41.621Z,99687.44
2023-02-16T14:03:45.960Z,99693.31
2023-02-16T14:09:29.862Z,99685.38
2023-02-16T14:14:36.435Z,99695.88
2023-02-16T14:19:40.785Z,99699.56
2023-02-16T14:24:44.750Z,99695.34
2023-02-16T14:29:57.629Z,99688.47
2023-02-16T14:35:09.236Z,99697.38
2023-02-16T14:40:18.309Z,99693.94
2023-02-16T14:45:54.119Z,99702.44
2023-02-16T14:51:18.316Z,99701.78
2023-02-16T14:56:44.005Z,99701.38
2023-02-16T15:01:47.207Z,99705.38
2023-02-16T15:06:51.583Z,99698.28
2023-02-16T15:12:14.351Z,99708.97
2023-02-16T15:17:26.945Z,99701.84
2023-02-16T15:22:31.801Z,99703.59
2023-02-16T15:27:34.971Z,99702.09
2023-02-16T15:32:38.495Z,99690.00
2023-02-16T15:37:42.881Z,99688.63
2023-02-16T15:42:46.006Z,99684.38
2023-02-16T15:47:49.322Z,99683.38
2023-02-16T15:52:54.900Z,99685.09
2023-02-16T15:57:59.002Z,99684.38
2023-02-16T16:03:02.711Z,99686.66
2023-02-16T16:08:12.289Z,99685.47
2023-02-16T16:13:19.993Z,99675.22
2023-02-16T16:18:43.290Z,99687.63
2023-02-16T16:24:00.504Z,99681.13
2023-02-16T16:29:04.224Z,99690.22
2023-02-16T16:34:09.000Z,99683.03
2023-02-16T16:39:27.563Z,99679.44
2023-02-16T16:44:35.000Z,99682.47
2023-02-16T16:49:38.036Z,99675.16
2023-02-16T16:54:42.650Z,99682.19
2023-02-16T16:59:47.310Z,99675.00
2023-02-16T17:04:50.685Z,99679.88
2023-02-16T17:09:55.531Z,99682.72
2023-02-16T17:14:59.801Z,99674.72
2023-02-16T17:20:03.457Z,99679.28
2023-02-16T17:25:08.272Z,99674.00
2023-02-16T17:30:12.649Z,99682.28
2023-02-16T17:35:16.112Z,99680.56
2023-02-16T17:40:23.518Z,99669.78
2023-02-16T17:45:26.530Z,99665.09
2023-02-16T17:50:30.387Z,99659.09
2023-02-16T17:55:35.631Z,99654.31
2023-02-16T18:00:39.266Z,99664.63
2023-02-16T18:05:42.425Z,99652.09
2023-02-16T18:10:48.486Z,99650.84
2023-02-16T18:15:51.434Z,99652.22
2023-02-16T18:20:54.554Z,99656.00
2023-02-16T18:25:58.983Z,99675.91
2023-02-16T18:31:02.994Z,99666.91
2023-02-16T18:36:06.810Z,99664.47
2023-02-16T18:41:11.459Z,99662.56
2023-02-16T18:46:14.516Z,99663.91
2023-02-16T18:51:18.403Z,99666.34
2023-02-16T18:56:22.719Z,99664.91
2023-02-16T19:01:30.813Z,99674.66
2023-02-16T19:06:34.113Z,99683.94
2023-02-16T19:11:38.475Z,99688.34
2023-02-16T19:16:41.955Z,99694.72
2023-02-16T19:21:45.467Z,99701.94
2023-02-16T19:26:49.717Z,99698.16
2023-02-16T19:31:52.746Z,99681.84
2023-02-16T19:36:55.736Z,99675.91
2023-02-16T19:42:00.646Z,99679.69
2023-02-16T19:47:04.193Z,99674.28
2023-02-16T19:52:07.109Z,99663.13
2023-02-16T19:57:11.378Z,99674.84
2023-02-16T20:02:15.560Z,99682.66
2023-02-16T20:07:18.490Z,99676.34
2023-02-16T20:12:22.745Z,99682.75
2023-02-16T20:17:25.933Z,99682.41
2023-02-16T20:22:28.927Z,99678.22
2023-02-16T20:27:33.431Z,99678.69
2023-02-16T20:32:36.541Z,99668.81
2023-02-16T20:37:39.494Z,99676.81
2023-02-16T20:42:43.975Z,99684.38
2023-02-16T20:47:46.903Z,99678.69
2023-02-16T20:52:49.829Z,99677.44
2023-02-16T20:57:54.096Z,99672.56
2023-02-16T21:02:57.154Z,99674.19
2023-02-16T21:08:00.114Z,99671.38
2023-02-16T21:13:04.422Z,99661.75
2023-02-16T21:18:07.311Z,99650.59
2023-02-16T21:23:10.266Z,99651.31
2023-02-16T21:28:14.759Z,99647.69
2023-02-16T21:33:17.699Z,99644.91
2023-02-16T21:38:20.603Z,99638.84
2023-02-16T21:43:24.947Z,99631.19
2023-02-16T21:48:45.139Z,99637.16
2023-02-16T21:53:48.317Z,99623.66
2023-02-16T21:58:52.608Z,99624.66
2023-02-16T22:03:58.736Z,99609.59
2023-02-16T22:09:02.103Z,99623.56
2023-02-16T22:14:06.460Z,99608.97
2023-02-16T22:19:12.781Z,99605.44
2023-02-16T22:24:17.389Z,99607.75
2023-02-16T22:29:21.698Z,99598.03
2023-02-16T22:34:24.621Z,99594.31
2023-02-16T22:39:27.509Z,99594.69
2023-02-16T22:44:31.797Z,99598.94
2023-02-16T22:49:34.742Z,99598.81
2023-02-16T22:54:37.824Z,99593.03
2023-02-16T22:59:42.175Z,99579.41
2023-02-16T23:04:45.086Z,99566.88
2023-02-16T23:09:47.952Z,99556.00
2023-02-16T23:14:52.185Z,99554.19
2023-02-16T23:19:55.070Z,99550.16
2023-02-16T23:25:11.814Z,99551.38
2023-02-16T23:30:16.283Z,99551.25
2023-02-16T23:35:19.482Z,99538.19
2023-02-16T23:40:22.448Z,99540.44
2023-02-16T23:45:26.749Z,99531.97
2023-02-16T23:50:29.782Z,99531.53
2023-02-16T23:55:32.691Z,99519.41
